Decoded Metar for KLRD (LAREDO in TX, USA) (IATA:LRD) | Meteo·Mobile Aviation Weather
aviador You're here:

KLRD Decoded Metar

LAREDO in TX, USA
Report Time2019-05-21 07:56:00
UTC Time2019-05-21 08:27:50
Flight Rules vfr VFR
Wind160° at 18 Gusting to 26 kt
W.Decomp.*RWY 14: 17.6 kt HW 3.7 kt RCW
RWY 17: 17.1 kt HW 5.6 kt LCW
Visibility9999 m
Phenomena:N/A
Clouds:N/A
Expected CloudBase > 2,000 ft AGL from Temp-Dew spread
CeilingNone
Temp27°C (ISA +13)
Dew Point22°C (74% RH)
Heat Index29.2°C
AAT25.2°C
QNH1000 hPa
Density Alt2,799 ft
Elevation509 ft
Report Wrong Elevation
Raw Report
KLRD 210756Z AUTO 16018G26KT 10SM CLR 27/22 A2952 RMK AO2 PK WND
16033/0659 SLP991 T02670217=

Extra information for KLRD:More info

Metar Taf Metar & Taf Last 4 Metars F.Rules Stats Wind Profile Meteogram Temp Stats Airport Information Weather charts Add Link Nearby VenuesMetar ALERT Operation Metar Decoded Social comments

AIRNAV info for KLRD